Weather at Millstream Station Field

Public forecast

Using degrees Celsius for public forecast. Weather courtesy of forecast.io.

Closest aviation weather report (METAR) to Millstream Station Field

Closest report is Paraburdoo Airport, 99.9 nm (185.1 km) SSE. Retrieved 2020/10/30 07:00 UTC (59 minutes ago):

YPBO 300700Z AUTO 24008KT 170V280 9999 // NCD 37/04 Q1010

Closest aviation forecast (TAF) to Millstream Station Field

Closest forecast is Port Hedland International Airport, 114.4 nm (211.9 km) NE. Retrieved 2020/10/30 06:36 UTC (1 hour ago):

TAF YPPD 300511Z 3006/3106 30016KT CAVOK FM301000 24010KT CAVOK FM301400 20006KT CAVOK FM310300 32015KT CAVOK